createdAt,value
2023-02-04T00:00:13.888Z,6.40
2023-02-04T00:02:42.088Z,5.93
2023-02-04T00:05:10.806Z,6.23
2023-02-04T00:07:39.944Z,5.13
2023-02-04T00:10:08.497Z,7.10
2023-02-04T00:12:35.751Z,5.93
2023-02-04T00:15:03.210Z,7.60
2023-02-04T00:17:30.425Z,7.40
2023-02-04T00:19:57.388Z,6.40
2023-02-04T00:22:24.265Z,8.40
2023-02-04T00:24:51.785Z,6.63
2023-02-04T00:27:18.650Z,7.17
2023-02-04T00:29:45.530Z,6.00
2023-02-04T00:32:12.539Z,6.03
2023-02-04T00:34:39.633Z,7.33
2023-02-04T00:37:07.482Z,5.70
2023-02-04T00:39:34.400Z,6.50
2023-02-04T00:42:01.421Z,5.10
2023-02-04T00:44:28.709Z,6.57
2023-02-04T00:46:55.842Z,5.50
2023-02-04T00:49:22.741Z,6.30
2023-02-04T00:51:49.904Z,6.03
2023-02-04T00:54:17.304Z,6.53
2023-02-04T00:56:45.080Z,6.37
2023-02-04T00:59:12.009Z,5.17
2023-02-04T01:01:39.230Z,5.70
2023-02-04T01:04:06.225Z,6.40
2023-02-04T01:06:33.389Z,5.90
2023-02-04T01:09:01.501Z,6.07
2023-02-04T01:11:29.394Z,6.30
2023-02-04T01:13:56.384Z,5.47
2023-02-04T01:16:23.566Z,5.63
2023-02-04T01:18:50.729Z,6.10
2023-02-04T01:21:17.716Z,5.67
2023-02-04T01:23:44.957Z,6.73
2023-02-04T01:26:12.061Z,5.63
2023-02-04T01:28:38.984Z,6.10
2023-02-04T01:31:05.921Z,6.03
2023-02-04T01:33:32.915Z,5.30
2023-02-04T01:36:00.049Z,6.07
2023-02-04T01:38:27.043Z,5.50
2023-02-04T01:40:54.104Z,5.50
2023-02-04T01:43:22.471Z,6.30
2023-02-04T01:45:50.812Z,6.83
2023-02-04T01:48:20.505Z,6.00
2023-02-04T01:50:52.520Z,5.70
2023-02-04T01:53:23.737Z,5.50
2023-02-04T01:55:51.495Z,5.20
2023-02-04T01:58:18.831Z,6.53
2023-02-04T02:00:46.493Z,6.00
2023-02-04T02:03:13.353Z,6.07
2023-02-04T02:05:55.317Z,4.93
2023-02-04T02:08:22.188Z,6.07
2023-02-04T02:10:49.641Z,6.10
2023-02-04T02:13:19.108Z,6.70
2023-02-04T02:15:47.355Z,6.10
2023-02-04T02:18:14.967Z,7.10
2023-02-04T02:20:43.720Z,5.97
2023-02-04T02:23:44.464Z,5.87
2023-02-04T02:26:11.236Z,6.93
2023-02-04T02:28:38.110Z,7.20
2023-02-04T02:31:05.046Z,5.60
2023-02-04T02:33:32.259Z,7.40
2023-02-04T02:35:59.114Z,5.93
2023-02-04T02:38:25.914Z,5.40
2023-02-04T02:40:53.872Z,5.40
2023-02-04T02:43:24.620Z,4.73
2023-02-04T02:45:51.861Z,6.13
2023-02-04T02:48:18.886Z,5.73
2023-02-04T02:50:45.973Z,6.63
2023-02-04T02:53:14.751Z,5.13
2023-02-04T02:55:42.232Z,6.43
2023-02-04T02:58:36.385Z,5.20
2023-02-04T03:01:07.228Z,6.80
2023-02-04T03:03:37.900Z,6.60
2023-02-04T03:06:15.858Z,6.00
2023-02-04T03:08:44.403Z,5.90
2023-02-04T03:11:11.672Z,6.07
2023-02-04T03:13:38.684Z,6.17
2023-02-04T03:16:06.410Z,5.17
2023-02-04T03:18:33.481Z,7.20
2023-02-04T03:21:00.474Z,6.33
2023-02-04T03:23:29.998Z,5.87
2023-02-04T03:25:56.653Z,6.80
2023-02-04T03:28:23.657Z,6.00
2023-02-04T03:30:55.704Z,6.30
2023-02-04T03:33:24.227Z,6.27
2023-02-04T03:35:51.496Z,5.77
2023-02-04T03:38:19.887Z,5.80
2023-02-04T03:40:46.865Z,6.43
2023-02-04T03:43:13.533Z,5.87
2023-02-04T03:45:45.238Z,5.90
2023-02-04T03:48:12.598Z,7.47
2023-02-04T03:50:39.364Z,5.90
2023-02-04T03:53:06.336Z,6.70
2023-02-04T03:55:33.132Z,5.10
2023-02-04T03:57:59.871Z,5.10
2023-02-04T04:00:26.944Z,6.30
2023-02-04T04:02:53.956Z,5.63
2023-02-04T04:05:20.792Z,5.63
2023-02-04T04:07:47.612Z,7.27
2023-02-04T04:10:14.319Z,6.53
2023-02-04T04:12:41.070Z,5.80
2023-02-04T04:15:08.197Z,4.60
2023-02-04T04:17:35.043Z,5.00
2023-02-04T04:20:01.764Z,6.23
2023-02-04T04:22:28.801Z,5.73
2023-02-04T04:24:55.452Z,6.87
2023-02-04T04:27:22.206Z,5.83
2023-02-04T04:29:48.842Z,6.20
2023-02-04T04:32:15.794Z,5.70
2023-02-04T04:34:42.394Z,5.63
2023-02-04T04:37:09.225Z,5.37
2023-02-04T04:39:35.975Z,6.17
2023-02-04T04:42:02.694Z,6.30
2023-02-04T04:44:29.320Z,6.87
2023-02-04T04:46:56.552Z,4.50
2023-02-04T04:49:24.067Z,6.33
2023-02-04T04:51:50.771Z,5.53
2023-02-04T04:54:17.540Z,5.33
2023-02-04T04:56:44.279Z,6.90
2023-02-04T04:59:10.929Z,5.43
2023-02-04T05:01:37.586Z,6.37
2023-02-04T05:04:04.403Z,5.33
2023-02-04T05:06:31.450Z,6.80
2023-02-04T05:08:58.070Z,6.60
2023-02-04T05:11:24.871Z,7.53
2023-02-04T05:13:51.613Z,6.27
2023-02-04T05:16:18.812Z,5.97
2023-02-04T05:18:45.661Z,6.80
2023-02-04T05:21:12.796Z,7.13
2023-02-04T05:23:39.464Z,6.33
2023-02-04T05:26:06.152Z,6.27
2023-02-04T05:28:32.874Z,5.93
2023-02-04T05:30:59.634Z,5.47
2023-02-04T05:33:27.494Z,5.93
2023-02-04T05:35:54.156Z,6.53
2023-02-04T05:38:20.942Z,6.67
2023-02-04T05:40:47.553Z,6.47
2023-02-04T05:43:14.209Z,4.60
2023-02-04T05:45:40.984Z,7.30
2023-02-04T05:48:07.720Z,5.20
2023-02-04T05:50:34.586Z,5.53
2023-02-04T05:53:01.380Z,6.30
2023-02-04T05:55:28.015Z,6.10
2023-02-04T05:57:55.257Z,7.17
2023-02-04T06:00:22.168Z,6.10
2023-02-04T06:02:48.784Z,5.90
2023-02-04T06:05:15.545Z,6.43
2023-02-04T06:07:42.295Z,5.60
2023-02-04T06:10:11.104Z,5.97
2023-02-04T06:12:37.784Z,5.50
2023-02-04T06:15:04.817Z,7.00
2023-02-04T06:17:31.602Z,6.17
2023-02-04T06:19:58.347Z,5.83
2023-02-04T06:22:26.009Z,5.57
2023-02-04T06:24:52.737Z,6.03
2023-02-04T06:27:23.271Z,6.03
2023-02-04T06:29:54.066Z,5.90
2023-02-04T06:32:22.018Z,6.43
2023-02-04T06:34:48.896Z,6.53
2023-02-04T06:37:17.152Z,7.80
2023-02-04T06:39:43.987Z,9.07
2023-02-04T06:42:10.672Z,5.83
2023-02-04T06:44:37.825Z,6.60
2023-02-04T06:47:04.486Z,6.37
2023-02-04T06:49:31.249Z,6.67
2023-02-04T06:51:58.181Z,7.43
2023-02-04T06:54:24.890Z,6.23
2023-02-04T06:56:51.547Z,6.33
2023-02-04T06:59:18.296Z,6.53
2023-02-04T07:01:45.078Z,5.70
2023-02-04T07:04:11.791Z,5.50
2023-02-04T07:06:38.414Z,6.43
2023-02-04T07:09:05.054Z,6.00
2023-02-04T07:11:31.687Z,6.47
2023-02-04T07:13:58.427Z,5.93
2023-02-04T07:16:25.447Z,6.13
2023-02-04T07:18:52.409Z,6.77
2023-02-04T07:21:19.165Z,5.43
2023-02-04T07:23:46.120Z,6.70
2023-02-04T07:26:12.801Z,5.30
2023-02-04T07:28:41.149Z,6.63
2023-02-04T07:31:07.952Z,6.87
2023-02-04T07:33:34.641Z,6.97
2023-02-04T07:36:01.327Z,7.43
2023-02-04T07:38:28.705Z,7.03
2023-02-04T07:40:55.380Z,6.47
2023-02-04T07:43:22.903Z,6.37
2023-02-04T07:45:50.265Z,5.93
2023-02-04T07:48:17.410Z,6.93
2023-02-04T07:50:44.398Z,7.23
2023-02-04T07:53:11.144Z,6.63
2023-02-04T07:55:37.868Z,8.17
2023-02-04T07:58:05.161Z,6.33
2023-02-04T08:00:32.111Z,7.00
2023-02-04T08:02:59.637Z,6.40
2023-02-04T08:05:26.354Z,7.37
2023-02-04T08:07:53.008Z,8.50
2023-02-04T08:10:21.364Z,8.53
2023-02-04T08:12:47.986Z,7.47
2023-02-04T08:15:14.666Z,7.77
2023-02-04T08:17:41.340Z,6.87
2023-02-04T08:20:09.564Z,7.37
2023-02-04T08:22:36.162Z,7.23
2023-02-04T08:25:05.267Z,8.00
2023-02-04T08:27:32.306Z,7.43
2023-02-04T08:29:58.989Z,6.40
2023-02-04T08:32:27.329Z,8.00
2023-02-04T08:34:53.962Z,8.73
2023-02-04T08:37:20.598Z,7.53
2023-02-04T08:39:48.931Z,8.20
2023-02-04T08:42:16.160Z,8.07
2023-02-04T08:44:43.358Z,7.80
2023-02-04T08:47:10.844Z,6.10
2023-02-04T08:49:37.930Z,6.97
2023-02-04T08:52:06.032Z,8.07
2023-02-04T08:54:33.511Z,7.67
2023-02-04T08:57:00.414Z,6.97
2023-02-04T08:59:27.711Z,7.73
2023-02-04T09:01:54.907Z,6.73
2023-02-04T09:04:23.486Z,6.23
2023-02-04T09:06:51.004Z,6.47
2023-02-04T09:09:17.666Z,6.80
2023-02-04T09:11:44.561Z,6.83
2023-02-04T09:14:11.733Z,7.27
2023-02-04T09:16:38.413Z,7.97
2023-02-04T09:19:05.885Z,8.43
2023-02-04T09:21:32.565Z,7.07
2023-02-04T09:23:59.396Z,7.00
2023-02-04T09:26:26.050Z,7.97
2023-02-04T09:28:52.767Z,7.23
2023-02-04T09:31:20.050Z,7.10
2023-02-04T09:33:46.813Z,5.97
2023-02-04T09:36:14.114Z,7.17
2023-02-04T09:38:40.880Z,6.83
2023-02-04T09:41:10.293Z,6.83
2023-02-04T09:43:40.897Z,6.60
2023-02-04T09:46:23.890Z,7.83
2023-02-04T09:48:51.108Z,6.83
2023-02-04T09:51:22.333Z,7.13
2023-02-04T09:53:50.317Z,7.67
2023-02-04T09:59:22.134Z,7.13
2023-02-04T10:01:57.393Z,5.93
2023-02-04T10:04:24.397Z,7.67
2023-02-04T10:06:51.174Z,7.33
2023-02-04T10:09:18.527Z,5.93
2023-02-04T10:11:48.201Z,7.00
2023-02-04T10:14:19.570Z,6.60
2023-02-04T10:16:59.561Z,6.30
2023-02-04T10:19:29.283Z,7.30
2023-02-04T10:21:56.590Z,6.80
2023-02-04T10:24:26.715Z,7.50
2023-02-04T10:26:54.090Z,7.50
2023-02-04T10:29:25.505Z,8.23
2023-02-04T10:31:52.997Z,7.33
2023-02-04T10:34:25.392Z,6.70
2023-02-04T10:36:58.013Z,5.90
2023-02-04T10:39:25.922Z,6.30
2023-02-04T10:41:57.724Z,6.80
2023-02-04T10:44:39.760Z,6.73
2023-02-04T10:47:16.297Z,7.73
2023-02-04T10:49:56.117Z,7.27
2023-02-04T10:52:26.542Z,7.33
2023-02-04T10:54:54.201Z,7.17
2023-02-04T10:57:26.881Z,7.97
2023-02-04T10:59:57.307Z,6.23
2023-02-04T11:02:46.020Z,6.03
2023-02-04T11:05:14.669Z,6.73
2023-02-04T11:07:41.488Z,6.93
2023-02-04T11:10:17.993Z,7.83
2023-02-04T11:13:01.506Z,7.03
2023-02-04T11:15:39.410Z,7.80
2023-02-04T11:18:13.732Z,8.73
2023-02-04T11:20:40.972Z,7.73
2023-02-04T11:23:26.371Z,6.50
2023-02-04T11:26:13.507Z,7.40
2023-02-04T11:28:48.641Z,7.20
2023-02-04T11:31:23.014Z,7.03
2023-02-04T11:34:04.694Z,6.10
2023-02-04T11:36:31.827Z,6.63
2023-02-04T11:39:14.132Z,6.80
2023-02-04T11:41:45.866Z,8.17
2023-02-04T11:44:14.486Z,6.83
2023-02-04T11:46:41.872Z,7.80
2023-02-04T11:49:20.420Z,5.93
2023-02-04T11:51:47.607Z,8.20
2023-02-04T11:54:19.005Z,7.60
2023-02-04T11:56:52.989Z,6.83
2023-02-04T11:59:21.660Z,7.93
2023-02-04T12:01:48.513Z,6.43
2023-02-04T12:04:26.296Z,7.43
2023-02-04T12:07:03.316Z,7.07
2023-02-04T12:09:31.688Z,6.10
2023-02-04T12:12:03.098Z,6.47
2023-02-04T12:14:36.730Z,6.80
2023-02-04T12:17:17.526Z,6.40
2023-02-04T12:19:44.402Z,6.70
2023-02-04T12:22:11.512Z,7.40
2023-02-04T12:24:38.409Z,7.37
2023-02-04T12:27:05.260Z,6.70
2023-02-04T12:29:32.146Z,6.77
2023-02-04T12:31:59.103Z,6.27
2023-02-04T12:34:25.909Z,7.03
2023-02-04T12:36:52.790Z,7.83
2023-02-04T12:39:19.653Z,7.00
2023-02-04T12:41:46.456Z,7.13
2023-02-04T12:44:15.387Z,8.33
2023-02-04T12:46:42.337Z,6.17
2023-02-04T12:49:09.753Z,6.30
2023-02-04T12:51:36.623Z,6.67
2023-02-04T12:54:03.531Z,7.27
2023-02-04T12:56:30.559Z,6.57
2023-02-04T12:58:57.452Z,5.90
2023-02-04T13:01:24.336Z,6.97
2023-02-04T13:03:51.323Z,6.60
2023-02-04T13:06:18.243Z,5.80
2023-02-04T13:08:45.122Z,7.60
2023-02-04T13:11:12.213Z,6.10
2023-02-04T13:13:39.724Z,5.90
2023-02-04T13:16:06.790Z,5.63
2023-02-04T13:18:34.170Z,6.20
2023-02-04T13:21:01.781Z,6.40
2023-02-04T13:23:28.745Z,6.40
2023-02-04T13:25:55.801Z,5.57
2023-02-04T13:28:22.650Z,7.07
2023-02-04T13:30:49.764Z,5.67
2023-02-04T13:33:16.887Z,6.80
2023-02-04T13:35:45.152Z,6.47
2023-02-04T13:38:11.853Z,5.70
2023-02-04T13:40:39.263Z,6.97
2023-02-04T13:43:05.990Z,5.30
2023-02-04T13:45:33.477Z,5.50
2023-02-04T13:48:00.504Z,6.80
2023-02-04T13:50:27.506Z,5.07
2023-02-04T13:52:55.199Z,4.67
2023-02-04T13:55:22.119Z,4.77
2023-02-04T13:57:48.765Z,4.73
2023-02-04T14:00:15.684Z,5.80
2023-02-04T14:02:43.059Z,5.03
2023-02-04T14:05:09.876Z,4.30
2023-02-04T14:07:36.567Z,6.47
2023-02-04T14:10:03.643Z,4.90
2023-02-04T14:12:30.303Z,4.63
2023-02-04T14:14:57.132Z,4.73
2023-02-04T14:17:23.876Z,5.93
2023-02-04T14:19:50.535Z,4.60
2023-02-04T14:22:17.375Z,5.70
2023-02-04T14:24:44.669Z,4.60
2023-02-04T14:27:11.385Z,5.90
2023-02-04T14:29:38.366Z,5.27
2023-02-04T14:32:05.926Z,6.27
2023-02-04T14:34:32.696Z,5.37
2023-02-04T14:36:59.675Z,6.20
2023-02-04T14:39:26.434Z,6.13
2023-02-04T14:41:53.649Z,4.90
2023-02-04T14:44:21.458Z,5.03
2023-02-04T14:46:49.147Z,5.17
2023-02-04T14:49:16.516Z,5.10
2023-02-04T14:51:43.415Z,5.93
2023-02-04T14:54:10.290Z,6.40
2023-02-04T14:56:37.054Z,5.90
2023-02-04T14:59:03.916Z,5.03
2023-02-04T15:01:31.145Z,5.37
2023-02-04T15:03:58.260Z,5.70
2023-02-04T15:06:25.014Z,5.13
2023-02-04T15:08:52.266Z,5.87
2023-02-04T15:11:19.022Z,5.50
2023-02-04T15:13:45.722Z,5.90
2023-02-04T15:16:14.263Z,5.83
2023-02-04T15:18:41.721Z,5.13
2023-02-04T15:21:08.505Z,6.80
2023-02-04T15:23:35.311Z,13.50
2023-02-04T15:26:02.346Z,20.10
2023-02-04T15:28:29.794Z,13.87
2023-02-04T15:30:56.822Z,14.07
2023-02-04T15:33:23.916Z,12.20
2023-02-04T15:35:50.568Z,11.80
2023-02-04T15:38:17.367Z,7.77
2023-02-04T15:40:44.113Z,7.40
2023-02-04T15:43:10.819Z,5.37
2023-02-04T15:45:41.290Z,6.30
2023-02-04T15:48:08.369Z,6.00
2023-02-04T15:50:35.163Z,7.13
2023-02-04T15:53:02.373Z,6.10
2023-02-04T15:55:29.715Z,6.80
2023-02-04T15:57:56.548Z,5.90
2023-02-04T16:00:24.060Z,5.00
2023-02-04T16:02:51.124Z,5.20
2023-02-04T16:05:18.276Z,5.40
2023-02-04T16:07:45.004Z,5.70
2023-02-04T16:10:11.784Z,6.70
2023-02-04T16:12:39.088Z,5.80
2023-02-04T16:15:06.221Z,6.10
2023-02-04T16:17:32.988Z,5.40
2023-02-04T16:19:59.971Z,6.17
2023-02-04T16:22:26.658Z,6.83
2023-02-04T16:24:53.417Z,5.43
2023-02-04T16:27:20.194Z,6.30
2023-02-04T16:29:47.226Z,8.03
2023-02-04T16:32:14.957Z,7.13
2023-02-04T16:34:41.781Z,6.07
2023-02-04T16:37:08.877Z,5.93
2023-02-04T16:39:38.924Z,7.00
2023-02-04T16:42:08.602Z,6.67
2023-02-04T16:44:39.204Z,6.30
2023-02-04T16:47:07.839Z,7.10
2023-02-04T16:49:35.664Z,6.67
2023-02-04T16:52:05.198Z,6.13
2023-02-04T16:54:33.132Z,6.10
2023-02-04T16:57:00.249Z,7.40
2023-02-04T16:59:28.497Z,9.43
2023-02-04T17:01:57.679Z,7.20
2023-02-04T17:04:25.287Z,5.67
2023-02-04T17:06:52.218Z,6.17
2023-02-04T17:09:19.623Z,6.90
2023-02-04T17:11:46.621Z,6.30
2023-02-04T17:14:17.476Z,5.63
2023-02-04T17:16:45.410Z,7.03
2023-02-04T17:19:13.775Z,7.17
2023-02-04T17:21:41.096Z,7.00
2023-02-04T17:24:09.012Z,5.43
2023-02-04T17:26:37.499Z,7.10
2023-02-04T17:29:09.648Z,8.03
2023-02-04T17:31:37.188Z,7.07
2023-02-04T17:34:04.837Z,7.20
2023-02-04T17:36:32.830Z,7.03
2023-02-04T17:38:59.810Z,6.37
2023-02-04T17:41:26.648Z,6.43
2023-02-04T17:43:53.768Z,6.30
2023-02-04T17:46:20.779Z,8.97
2023-02-04T17:48:47.604Z,6.80
2023-02-04T17:51:14.452Z,6.47
2023-02-04T17:53:41.411Z,6.73
2023-02-04T17:56:13.752Z,7.70
2023-02-04T17:58:41.459Z,7.67
2023-02-04T18:01:13.435Z,9.23
2023-02-04T18:03:43.137Z,7.13
2023-02-04T18:06:37.179Z,8.67
2023-02-04T18:09:11.916Z,7.97
2023-02-04T18:11:40.366Z,7.90
2023-02-04T18:14:25.460Z,7.33
2023-02-04T18:16:57.645Z,7.40
2023-02-04T18:19:35.381Z,9.77
2023-02-04T18:22:16.876Z,6.57
2023-02-04T18:24:48.222Z,7.40
2023-02-04T18:27:23.888Z,7.53
2023-02-04T18:29:56.005Z,9.87
2023-02-04T18:32:33.309Z,9.80
2023-02-04T18:35:14.607Z,10.20
2023-02-04T18:37:47.812Z,11.87
2023-02-04T18:40:25.544Z,11.07
2023-02-04T18:43:02.817Z,13.80
2023-02-04T18:45:31.850Z,14.40
2023-02-04T18:48:16.309Z,14.57
2023-02-04T18:50:44.871Z,10.97
2023-02-04T18:53:14.999Z,10.67
2023-02-04T18:55:50.298Z,12.63
2023-02-04T18:58:17.140Z,12.37
2023-02-04T19:00:49.514Z,10.03
2023-02-04T19:03:26.159Z,11.43
2023-02-04T19:05:54.303Z,9.80
2023-02-04T19:08:30.220Z,8.10
2023-02-04T19:10:58.655Z,8.90
2023-02-04T19:13:34.167Z,9.10
2023-02-04T19:16:03.509Z,7.93
2023-02-04T19:18:37.749Z,7.80
2023-02-04T19:21:28.604Z,5.70
2023-02-04T19:24:07.719Z,8.93
2023-02-04T19:26:52.685Z,5.80
2023-02-04T19:29:34.108Z,7.83
2023-02-04T19:32:19.501Z,10.47
2023-02-04T19:34:46.264Z,9.77
2023-02-04T19:37:21.554Z,9.73
2023-02-04T19:39:50.844Z,9.17
2023-02-04T19:42:36.935Z,10.07
2023-02-04T19:45:18.698Z,10.30
2023-02-04T19:47:45.829Z,9.33
2023-02-04T19:50:12.585Z,9.10
2023-02-04T19:53:03.526Z,10.73
2023-02-04T19:55:37.411Z,9.23
2023-02-04T19:58:18.148Z,10.13
2023-02-04T20:00:55.924Z,10.80
2023-02-04T20:03:36.953Z,10.63
2023-02-04T20:06:09.717Z,9.63
2023-02-04T20:08:46.292Z,9.53
2023-02-04T20:11:32.441Z,11.17
2023-02-04T20:14:14.165Z,9.63
2023-02-04T20:16:54.766Z,10.57
2023-02-04T20:19:26.000Z,9.97
2023-02-04T20:22:18.600Z,8.50
2023-02-04T20:24:55.365Z,9.47
2023-02-04T20:27:24.786Z,10.20
2023-02-04T20:30:22.171Z,12.23
2023-02-04T20:32:59.144Z,10.40
2023-02-04T20:35:28.664Z,10.53
2023-02-04T20:37:59.407Z,11.00
2023-02-04T20:40:33.412Z,11.93
2023-02-04T20:43:02.193Z,11.77
2023-02-04T20:46:01.993Z,12.10
2023-02-04T20:48:33.690Z,13.87
2023-02-04T20:51:04.787Z,16.90
2023-02-04T20:53:58.507Z,17.23
2023-02-04T20:56:26.883Z,12.17
2023-02-04T20:59:27.410Z,15.27
2023-02-04T21:01:55.934Z,14.70
2023-02-04T21:04:26.891Z,14.07
2023-02-04T21:06:57.365Z,16.00
2023-02-04T21:09:27.838Z,14.00
2023-02-04T21:11:56.315Z,14.33
2023-02-04T21:14:24.488Z,13.87
2023-02-04T21:16:51.607Z,12.53
2023-02-04T21:19:18.604Z,12.10
2023-02-04T21:21:45.265Z,10.40
2023-02-04T21:24:11.993Z,10.10
2023-02-04T21:26:38.781Z,12.47
2023-02-04T21:29:05.800Z,11.83
2023-02-04T21:31:33.295Z,10.80
2023-02-04T21:34:00.882Z,11.17
2023-02-04T21:36:27.901Z,12.60
2023-02-04T21:38:55.305Z,11.83
2023-02-04T21:41:23.283Z,13.23
2023-02-04T21:43:51.179Z,11.77
2023-02-04T21:46:18.744Z,12.87
2023-02-04T21:48:46.145Z,13.63
2023-02-04T21:51:14.345Z,12.43
2023-02-04T21:53:41.841Z,13.00
2023-02-04T21:56:09.715Z,10.60
2023-02-04T21:58:38.482Z,11.60
2023-02-04T22:01:05.626Z,11.03
2023-02-04T22:03:32.540Z,11.30
2023-02-04T22:05:59.712Z,12.83
2023-02-04T22:08:26.470Z,12.40
2023-02-04T22:10:53.189Z,10.80
2023-02-04T22:13:19.805Z,11.70
2023-02-04T22:15:47.854Z,12.60
2023-02-04T22:18:14.754Z,11.87
2023-02-04T22:20:41.431Z,10.20
2023-02-04T22:23:08.154Z,11.03
2023-02-04T22:25:35.238Z,10.80
2023-02-04T22:28:02.454Z,12.43
2023-02-04T22:30:29.252Z,12.10
2023-02-04T22:32:56.544Z,11.27
2023-02-04T22:35:23.776Z,12.50
2023-02-04T22:37:50.629Z,12.30
2023-02-04T22:40:17.542Z,13.47
2023-02-04T22:42:44.219Z,12.03
2023-02-04T22:45:10.979Z,12.30
2023-02-04T22:47:37.721Z,15.53
2023-02-04T22:50:04.796Z,12.50
2023-02-04T22:52:31.641Z,11.60
2023-02-04T22:54:58.781Z,13.60
2023-02-04T22:57:25.504Z,12.93
2023-02-04T22:59:52.161Z,11.90
2023-02-04T23:02:18.844Z,13.13
2023-02-04T23:04:45.526Z,12.57
2023-02-04T23:07:13.256Z,13.20
2023-02-04T23:09:40.014Z,12.10
2023-02-04T23:12:13.296Z,13.63
2023-02-04T23:14:44.946Z,14.00
2023-02-04T23:17:12.708Z,12.80
2023-02-04T23:19:40.100Z,13.53
2023-02-04T23:22:09.270Z,14.30
2023-02-04T23:24:36.432Z,14.67
2023-02-04T23:27:04.523Z,13.10
2023-02-04T23:29:32.775Z,13.73
2023-02-04T23:32:00.206Z,14.43
2023-02-04T23:34:27.182Z,11.83
2023-02-04T23:36:55.854Z,13.63
2023-02-04T23:39:22.955Z,13.00
2023-02-04T23:41:50.688Z,10.93
2023-02-04T23:44:18.086Z,12.87
2023-02-04T23:46:45.443Z,12.03
2023-02-04T23:49:12.527Z,11.93
2023-02-04T23:51:39.486Z,13.20
2023-02-04T23:54:07.199Z,12.60
2023-02-04T23:56:34.612Z,12.07
2023-02-04T23:59:02.068Z,10.47
